createdAt,value
2023-08-29T00:02:47.631Z,7.15
2023-08-29T00:07:49.380Z,4.78
2023-08-29T00:12:52.411Z,4.47
2023-08-29T00:17:54.279Z,6.95
2023-08-29T00:22:55.996Z,6.18
2023-08-29T00:27:59.107Z,5.07
2023-08-29T00:33:01.184Z,5.57
2023-08-29T00:38:03.332Z,4.28
2023-08-29T00:48:09.336Z,6.50
2023-08-29T00:53:11.927Z,5.05
2023-08-29T00:58:15.492Z,6.60
2023-08-29T01:03:17.438Z,6.70
2023-08-29T01:08:19.319Z,10.32
2023-08-29T01:13:30.802Z,8.77
2023-08-29T01:18:33.235Z,6.00
2023-08-29T01:23:43.970Z,4.30
2023-08-29T01:28:47.765Z,9.88
2023-08-29T01:33:49.894Z,6.30
2023-08-29T01:38:52.125Z,5.80
2023-08-29T01:43:55.408Z,4.93
2023-08-29T01:48:58.645Z,7.20
2023-08-29T01:54:00.469Z,8.18
2023-08-29T01:59:05.604Z,6.75
2023-08-29T02:04:07.565Z,5.38
2023-08-29T02:09:09.286Z,7.57
2023-08-29T02:14:12.458Z,5.38
2023-08-29T02:19:14.289Z,6.43
2023-08-29T02:24:18.758Z,6.55
2023-08-29T02:29:21.771Z,5.47
2023-08-29T02:34:23.428Z,5.97
2023-08-29T02:39:25.132Z,6.80
2023-08-29T02:44:29.487Z,6.53
2023-08-29T02:49:31.156Z,5.60
2023-08-29T02:54:32.800Z,9.23
2023-08-29T02:59:36.297Z,6.45
2023-08-29T03:04:38.014Z,5.18
2023-08-29T03:09:39.677Z,5.82
2023-08-29T03:14:43.353Z,6.57
2023-08-29T03:19:45.025Z,8.15
2023-08-29T03:24:47.265Z,5.97
2023-08-29T03:29:52.901Z,9.20
2023-08-29T03:34:54.790Z,6.70
2023-08-29T03:39:56.563Z,7.80
2023-08-29T03:44:59.721Z,5.90
2023-08-29T03:50:01.361Z,5.95
2023-08-29T03:55:03.053Z,6.93
2023-08-29T04:00:07.887Z,6.40
2023-08-29T04:05:16.489Z,6.78
2023-08-29T04:10:18.393Z,7.25
2023-08-29T04:15:21.665Z,7.05
2023-08-29T04:20:23.325Z,6.15
2023-08-29T04:25:25.424Z,6.15
2023-08-29T04:30:29.105Z,6.60
2023-08-29T04:35:30.781Z,6.57
2023-08-29T04:40:32.491Z,6.13
2023-08-29T04:45:35.587Z,6.40
2023-08-29T04:50:37.785Z,8.88
2023-08-29T04:55:39.455Z,5.93
2023-08-29T05:00:43.514Z,8.95
2023-08-29T05:05:47.495Z,6.03
2023-08-29T05:10:50.475Z,8.43
2023-08-29T05:15:54.010Z,8.27
2023-08-29T05:20:56.035Z,6.45
2023-08-29T05:25:57.917Z,6.70
2023-08-29T05:31:00.960Z,7.45
2023-08-29T05:36:02.704Z,8.73
2023-08-29T05:41:04.678Z,5.82
2023-08-29T05:46:07.738Z,7.30
2023-08-29T05:51:09.631Z,6.88
2023-08-29T05:56:11.290Z,7.85
2023-08-29T06:01:14.558Z,6.63
2023-08-29T06:06:16.293Z,6.70
2023-08-29T06:11:17.933Z,7.22
2023-08-29T06:16:20.916Z,7.78
2023-08-29T06:21:22.594Z,5.80
2023-08-29T06:26:24.742Z,7.22
2023-08-29T06:31:27.765Z,8.18
2023-08-29T06:36:29.488Z,6.90
2023-08-29T06:41:31.204Z,8.90
2023-08-29T06:46:34.219Z,7.97
2023-08-29T06:51:36.710Z,9.55
2023-08-29T06:56:38.467Z,8.27
2023-08-29T07:01:41.749Z,13.77
2023-08-29T07:06:43.455Z,20.30
2023-08-29T07:11:45.098Z,23.13
2023-08-29T07:17:00.106Z,16.05
2023-08-29T07:22:23.445Z,18.55
2023-08-29T07:27:25.919Z,25.73
2023-08-29T07:32:28.990Z,23.52
2023-08-29T07:37:30.646Z,26.20
2023-08-29T07:42:32.295Z,31.27
2023-08-29T07:47:35.395Z,28.15
2023-08-29T07:52:38.284Z,29.17
2023-08-29T07:57:41.276Z,27.58
2023-08-29T08:02:45.859Z,27.00
2023-08-29T08:07:47.816Z,27.48
2023-08-29T08:12:50.133Z,27.77
2023-08-29T08:17:53.477Z,25.23
2023-08-29T08:22:55.423Z,27.42
2023-08-29T08:27:58.976Z,22.65
2023-08-29T08:33:03.165Z,26.92
2023-08-29T08:38:05.280Z,24.10
2023-08-29T08:43:07.529Z,22.50
2023-08-29T08:53:15.006Z,22.75
2023-08-29T08:58:18.210Z,19.77
2023-08-29T09:08:23.220Z,24.17
2023-08-29T09:13:24.955Z,20.80
2023-08-29T09:18:30.091Z,20.02
2023-08-29T09:23:38.164Z,16.58
2023-08-29T09:28:40.842Z,18.45
2023-08-29T09:33:43.937Z,17.27
2023-08-29T09:38:45.898Z,17.90
2023-08-29T09:43:48.680Z,20.10
2023-08-29T09:48:58.442Z,18.23
2023-08-29T09:54:01.531Z,18.92
2023-08-29T09:59:04.366Z,18.73
2023-08-29T10:04:11.645Z,16.15
2023-08-29T10:09:14.650Z,17.70
2023-08-29T10:14:17.680Z,18.45
2023-08-29T10:19:22.231Z,20.33
2023-08-29T10:24:25.952Z,13.30
2023-08-29T10:29:27.814Z,17.38
2023-08-29T10:34:31.229Z,13.50
2023-08-29T10:39:32.987Z,12.23
2023-08-29T10:44:38.808Z,13.35
2023-08-29T10:49:43.333Z,14.38
2023-08-29T10:54:45.386Z,12.27
2023-08-29T10:59:47.305Z,9.45
2023-08-29T11:04:56.380Z,10.95
2023-08-29T11:10:15.336Z,9.60
2023-08-29T11:15:17.082Z,11.45
2023-08-29T11:20:21.088Z,9.05
2023-08-29T11:25:22.892Z,9.43
2023-08-29T11:30:34.805Z,7.78
2023-08-29T11:35:46.187Z,9.32
2023-08-29T11:41:04.759Z,11.80
2023-08-29T11:46:10.958Z,7.15
2023-08-29T11:51:14.443Z,10.73
2023-08-29T11:56:16.519Z,5.75
2023-08-29T12:01:18.261Z,10.27
2023-08-29T12:06:26.289Z,9.43
2023-08-29T12:11:41.309Z,8.55
2023-08-29T12:16:43.211Z,6.90
2023-08-29T12:21:54.463Z,7.82
2023-08-29T12:26:56.054Z,8.48
2023-08-29T12:31:57.728Z,6.97
2023-08-29T12:37:00.706Z,5.97
2023-08-29T12:42:02.476Z,4.88
2023-08-29T12:47:04.728Z,7.43
2023-08-29T12:52:07.985Z,7.95
2023-08-29T12:57:09.699Z,5.80
2023-08-29T13:02:11.366Z,5.72
2023-08-29T13:07:14.491Z,6.65
2023-08-29T13:12:16.173Z,4.75
2023-08-29T13:17:17.902Z,8.10
2023-08-29T13:22:22.095Z,6.20
2023-08-29T13:27:25.832Z,6.57
2023-08-29T13:32:27.539Z,5.18
2023-08-29T13:37:30.767Z,8.13
2023-08-29T13:42:32.465Z,7.10
2023-08-29T13:47:34.154Z,7.55
2023-08-29T13:52:37.375Z,12.13
2023-08-29T13:57:39.316Z,8.07
2023-08-29T14:02:41.010Z,8.63
2023-08-29T14:07:44.518Z,8.70
2023-08-29T14:12:46.246Z,8.45
2023-08-29T14:17:47.950Z,8.32
2023-08-29T14:22:51.107Z,9.18
2023-08-29T14:27:52.780Z,8.73
2023-08-29T14:32:54.466Z,11.45
2023-08-29T14:37:57.457Z,8.25
2023-08-29T14:42:59.100Z,7.78
2023-08-29T14:48:00.911Z,6.85
2023-08-29T14:53:04.450Z,5.70
2023-08-29T14:58:06.412Z,5.40
2023-08-29T15:03:10.266Z,7.03
2023-08-29T15:08:14.129Z,6.35
2023-08-29T15:13:15.810Z,6.28
2023-08-29T15:18:17.816Z,7.85
2023-08-29T15:23:20.875Z,4.65
2023-08-29T15:28:22.546Z,6.47
2023-08-29T15:33:24.189Z,4.90
2023-08-29T15:38:27.344Z,5.40
2023-08-29T15:43:31.904Z,7.30
2023-08-29T15:48:33.800Z,7.78
2023-08-29T15:53:36.897Z,5.38
2023-08-29T15:58:38.617Z,5.88
2023-08-29T16:03:40.443Z,6.35
2023-08-29T16:08:44.018Z,5.90
2023-08-29T16:13:45.682Z,4.70
2023-08-29T16:18:47.421Z,5.93
2023-08-29T16:23:50.522Z,4.78
2023-08-29T16:28:52.239Z,5.00
2023-08-29T16:33:53.889Z,6.82
2023-08-29T16:38:56.927Z,6.13
2023-08-29T16:43:58.595Z,5.40
2023-08-29T16:49:00.321Z,5.65
2023-08-29T16:54:03.507Z,6.28
2023-08-29T16:59:05.287Z,4.20
2023-08-29T17:04:07.157Z,5.00
2023-08-29T17:09:10.221Z,3.95
2023-08-29T17:14:11.956Z,4.18
2023-08-29T17:19:14.174Z,4.55
2023-08-29T17:24:17.276Z,5.22
2023-08-29T17:29:18.935Z,3.92
2023-08-29T17:34:20.670Z,4.40
2023-08-29T17:39:23.719Z,4.75
2023-08-29T17:44:25.639Z,4.22
2023-08-29T17:49:29.259Z,3.80
2023-08-29T17:54:32.528Z,3.92
2023-08-29T17:59:34.209Z,4.13
2023-08-29T18:04:35.912Z,4.40
2023-08-29T18:09:39.248Z,4.30
2023-08-29T18:14:40.863Z,4.03
2023-08-29T18:19:42.521Z,4.90
2023-08-29T18:29:47.218Z,6.90
2023-08-29T18:34:48.963Z,5.57
2023-08-29T18:39:52.115Z,6.75
2023-08-29T18:44:53.783Z,8.00
2023-08-29T18:49:55.674Z,7.00
2023-08-29T18:54:58.678Z,4.05
2023-08-29T19:00:00.579Z,5.13
2023-08-29T19:05:02.252Z,4.72
2023-08-29T19:10:08.138Z,5.03
2023-08-29T19:15:10.328Z,6.80
2023-08-29T19:20:12.334Z,7.65
2023-08-29T19:25:15.366Z,7.38
2023-08-29T19:30:17.087Z,5.70
2023-08-29T19:35:18.750Z,5.45
2023-08-29T19:40:22.191Z,6.20
2023-08-29T19:45:24.377Z,5.30
2023-08-29T19:50:26.064Z,6.32
2023-08-29T19:55:29.074Z,5.72
2023-08-29T20:00:30.783Z,5.15
2023-08-29T20:05:32.435Z,5.47
2023-08-29T20:10:35.953Z,4.85
2023-08-29T20:15:40.824Z,6.32
2023-08-29T20:20:42.513Z,6.32
2023-08-29T20:25:45.577Z,7.45
2023-08-29T20:30:47.226Z,6.78
2023-08-29T20:35:48.876Z,6.82
2023-08-29T20:40:51.892Z,9.95
2023-08-29T20:45:53.593Z,7.45
2023-08-29T20:51:00.548Z,8.02
2023-08-29T20:56:03.936Z,7.85
2023-08-29T21:01:05.584Z,8.23
2023-08-29T21:06:07.358Z,6.47
2023-08-29T21:11:10.601Z,7.00
2023-08-29T21:16:12.514Z,5.85
2023-08-29T21:21:14.267Z,7.10
2023-08-29T21:26:17.332Z,7.90
2023-08-29T21:31:18.996Z,7.55
2023-08-29T21:36:20.718Z,8.95
2023-08-29T21:41:23.808Z,6.85
2023-08-29T21:46:25.588Z,7.35
2023-08-29T21:51:29.322Z,8.05
2023-08-29T21:56:32.353Z,7.40
2023-08-29T22:01:34.180Z,6.55
2023-08-29T22:06:35.895Z,7.90
2023-08-29T22:11:39.109Z,7.80
2023-08-29T22:16:40.809Z,7.80
2023-08-29T22:21:42.721Z,5.45
2023-08-29T22:26:45.738Z,5.97
2023-08-29T22:31:47.458Z,7.28
2023-08-29T22:36:49.174Z,7.97
2023-08-29T22:41:52.169Z,6.28
2023-08-29T22:46:53.960Z,5.72
2023-08-29T22:51:55.573Z,6.80
2023-08-29T22:56:59.004Z,6.60
2023-08-29T23:02:00.765Z,6.30
2023-08-29T23:07:03.802Z,6.32
2023-08-29T23:12:07.802Z,6.20
2023-08-29T23:17:09.514Z,8.00
2023-08-29T23:22:11.341Z,7.57
2023-08-29T23:27:14.352Z,7.07
2023-08-29T23:32:16.003Z,6.93
2023-08-29T23:37:17.693Z,6.07
2023-08-29T23:42:20.712Z,6.22
2023-08-29T23:47:22.336Z,7.13
2023-08-29T23:52:24.024Z,5.55
2023-08-29T23:57:27.151Z,7.55
